gps_data.dat 1.23 KB
Newer Older
1 2 3 4 5 6 7 8 9 10 11 12 13 14 15 16 17 18 19 20 21
$GPRMC,042931.0,A,4043.39929,N,11155.92706,W,000.00,283.8,250411,013.2,E*45
$GPGGA,042931.0,4043.39929,N,11155.92706,W,1,09,0.8,1280.5,M,-13.8,M,,*5B
$GPGSA,A,3,04,07,08,11,15,17,24,26,27,,,,1.7,0.8,1.5*36
$GPVTG,283.8,T,270.5,M,000.00,N,0000.00,K*7F
$GPRMC,042931.2,A,4043.39929,N,11155.92705,W,000.01,283.8,250411,013.2,E*45
$GPGGA,042931.2,4043.39929,N,11155.92705,W,1,09,0.8,1280.5,M,-13.8,M,,*5A
$GPGSA,A,3,04,07,08,11,15,17,24,26,27,,,,1.7,0.8,1.5*36
$GPVTG,283.8,T,270.5,M,000.01,N,0000.01,K*7F
$GPRMC,042931.4,A,4043.39929,N,11155.92705,W,000.01,283.8,250411,013.2,E*43
$GPGGA,042931.4,4043.39929,N,11155.92705,W,1,09,0.8,1280.5,M,-13.8,M,,*5C
$GPGSA,A,3,04,07,08,11,15,17,24,26,27,,,,1.7,0.8,1.5*36
$GPVTG,283.8,T,270.5,M,000.01,N,0000.02,K*7C
$GPRMC,042931.6,A,4043.39929,N,11155.92705,W,000.00,283.8,250411,013.2,E*40
$GPGGA,042931.6,4043.39929,N,11155.92705,W,1,09,0.8,1280.5,M,-13.8,M,,*5E
$GPGSA,A,3,04,07,08,11,15,17,24,26,27,,,,1.7,0.8,1.5*36
$GPVTG,283.8,T,270.5,M,000.00,N,0000.00,K*7F
$GPRMC,042931.8,A,4043.39929,N,11155.92705,W,000.01,283.8,250411,013.2,E*4F
$GPGGA,042931.8,4043.39929,N,11155.92705,W,1,09,0.8,1280.5,M,-13.8,M,,*50
$GPGSA,A,3,04,07,08,11,15,17,24,26,27,,,,1.7,0.8,1.5*36
$GPVTG,283.8,T,270.5,M,000.01,N,0000.01,K*7F